PWSweather.com
Personal Weather Stations
Station Observations
ISTOCKPO4
Cheadle HulmeGB SK8 6NZ

Cheadle HulmeGB SK8 6NZ

Lat: 53.363783, Lon: -2.1948438

Elevation: 261

Station Type: Davis VP2 with Daytime FARS

http://www.cheadlehulmeweather.co.uk

Latest ConditionsUpdated 8:30:03 PM GMT Monday, Sep 23, 2019
Currently Today's Max Today's Min Today's Average
Temperature 59.4°F15.2°C 64.9°F18.3°C 55.2°F12.9°C 59.6°F15.3°C
Dew Point 57.0°F13.9°C 57.4°F14.1°C 53.2°F11.8°C 55.3°F12.9°C
Winds 9.0 mph SSE14.5 kmh SSE 12.0 mph -19.3 kmh - - 6.6 mph 10.6 kmh
Wind Gusts 17.0 mph27.4 kmh 22.0 mph35.4 kmh - -
Humidity 92% 94% 70% 86%
Pressure 29.63 in1003.4 mb 29.76 in1007.8 mb 29.63 in1003.4 mb -
Precipitation - 0.14 in3.6 mm - -
Hour Temp Dew Point Humidity Winds Wind Gusts Pressure Precip Precip Rate Daily Precip Total
08:30 PM 59.4°F15.2°C 57.0°F13.9°C 92% 9.0 mph SSE14.5 kmh SSE 17.0 mph27.4 kmh 29.63 in1003.4 mb 0.00 in0.0 mm 0.00 in0.0 mm 0.14 in3.6 mm
08:15 PM 59.2°F15.1°C 56.9°F13.8°C 92% 9.0 mph SSE14.5 kmh SSE 19.0 mph30.6 kmh 29.64 in1003.7 mb 0.00 in0.0 mm 0.00 in0.0 mm 0.14 in3.6 mm
08:00 PM 59.2°F15.1°C 56.9°F13.8°C 92% 10.0 mph SSE16.1 kmh SSE 17.0 mph27.4 kmh 29.63 in1003.4 mb 0.00 in0.0 mm 0.00 in0.0 mm 0.14 in3.6 mm
07:45 PM 59.0°F15.0°C 56.7°F13.7°C 92% 10.0 mph SE16.1 kmh SE 17.0 mph27.4 kmh 29.63 in1003.4 mb 0.00 in0.0 mm 0.00 in0.0 mm 0.14 in3.6 mm
07:30 PM 58.6°F14.8°C 56.3°F13.5°C 92% 9.0 mph SE14.5 kmh SE 20.0 mph32.2 kmh 29.63 in1003.4 mb 0.00 in0.0 mm 0.00 in0.0 mm 0.14 in3.6 mm
07:15 PM 58.6°F14.8°C 56.3°F13.5°C 92% 12.0 mph SE19.3 kmh SE 18.0 mph29.0 kmh 29.63 in1003.4 mb 0.00 in0.0 mm 0.00 in0.0 mm 0.14 in3.6 mm
07:00 PM 58.6°F14.8°C 56.3°F13.5°C 92% 11.0 mph SE17.7 kmh SE 20.0 mph32.2 kmh 29.64 in1003.7 mb 0.00 in0.0 mm 0.00 in0.0 mm 0.14 in3.6 mm
06:45 PM 58.5°F14.7°C 56.1°F13.4°C 92% 11.0 mph SE17.7 kmh SE 22.0 mph35.4 kmh 29.64 in1003.7 mb 0.02 in0.5 mm 0.00 in0.0 mm 0.14 in3.6 mm
06:30 PM 58.3°F14.6°C 56.0°F13.3°C 92% 9.0 mph SE14.5 kmh SE 18.0 mph29.0 kmh 29.64 in1003.7 mb 0.03 in0.8 mm 0.00 in0.0 mm 0.14 in3.6 mm
06:15 PM 57.7°F14.3°C 55.7°F13.2°C 93% 9.0 mph SE14.5 kmh SE 16.0 mph25.7 kmh 29.64 in1003.7 mb 0.04 in1.0 mm 0.00 in0.0 mm 0.14 in3.6 mm
06:00 PM 57.6°F14.2°C 55.3°F12.9°C 92% 7.0 mph SE11.3 kmh SE 16.0 mph25.7 kmh 29.65 in1004.1 mb 0.06 in1.5 mm 0.01 in0.3 mm 0.14 in3.6 mm
05:45 PM 57.9°F14.4°C 55.3°F12.9°C 91% 9.0 mph SE14.5 kmh SE 21.0 mph33.8 kmh 29.66 in1004.4 mb 0.05 in1.3 mm 0.08 in2.0 mm 0.12 in3.0 mm
05:30 PM 58.3°F14.6°C 55.7°F13.2°C 91% 8.0 mph SE12.9 kmh SE 14.0 mph22.5 kmh 29.67 in1004.7 mb 0.03 in0.8 mm 0.00 in0.0 mm 0.10 in2.5 mm
05:15 PM 58.5°F14.7°C 55.8°F13.2°C 91% 8.0 mph SE12.9 kmh SE 17.0 mph27.4 kmh 29.67 in1004.7 mb 0.05 in1.3 mm 0.00 in0.0 mm 0.10 in2.5 mm
05:00 PM 58.8°F14.9°C 55.9°F13.3°C 90% 7.0 mph SE11.3 kmh SE 14.0 mph22.5 kmh 29.68 in1005.1 mb 0.05 in1.3 mm 0.01 in0.3 mm 0.08 in2.0 mm
04:45 PM 59.4°F15.2°C 56.1°F13.4°C 89% 6.0 mph SE9.7 kmh SE 12.0 mph19.3 kmh 29.68 in1005.1 mb 0.04 in1.0 mm 0.04 in1.0 mm 0.07 in1.8 mm
04:30 PM 60.1°F15.6°C 55.9°F13.3°C 86% 6.0 mph SE9.7 kmh SE 11.0 mph17.7 kmh 29.69 in1005.4 mb 0.03 in0.8 mm 0.04 in1.0 mm 0.06 in1.5 mm
04:15 PM 61.2°F16.2°C 56.0°F13.3°C 83% 6.0 mph SE9.7 kmh SE 10.0 mph16.1 kmh 29.70 in1005.8 mb 0.02 in0.5 mm 0.08 in2.0 mm 0.05 in1.3 mm
04:00 PM 62.4°F16.9°C 55.8°F13.2°C 79% 7.0 mph SE11.3 kmh SE 12.0 mph19.3 kmh 29.69 in1005.4 mb 0.00 in0.0 mm 0.00 in0.0 mm 0.03 in0.8 mm
03:45 PM 63.1°F17.3°C 54.3°F12.4°C 73% 6.0 mph SE9.7 kmh SE 11.0 mph17.7 kmh 29.69 in1005.4 mb 0.00 in0.0 mm 0.00 in0.0 mm 0.03 in0.8 mm
03:30 PM 63.3°F17.4°C 54.1°F12.3°C 72% 7.0 mph SE11.3 kmh SE 14.0 mph22.5 kmh 29.70 in1005.8 mb 0.00 in0.0 mm 0.00 in0.0 mm 0.03 in0.8 mm
03:15 PM 63.7°F17.6°C 54.9°F12.7°C 73% 6.0 mph SE9.7 kmh SE 13.0 mph20.9 kmh 29.70 in1005.8 mb 0.00 in0.0 mm 0.00 in0.0 mm 0.03 in0.8 mm
03:00 PM 63.9°F17.7°C 54.3°F12.4°C 71% 8.0 mph SE12.9 kmh SE 14.0 mph22.5 kmh 29.70 in1005.8 mb 0.00 in0.0 mm 0.00 in0.0 mm 0.03 in0.8 mm
02:45 PM 64.2°F17.9°C 54.6°F12.6°C 71% 9.0 mph SSE14.5 kmh SSE 16.0 mph25.7 kmh 29.71 in1006.1 mb 0.00 in0.0 mm 0.00 in0.0 mm 0.03 in0.8 mm
02:30 PM 64.8°F18.2°C 55.1°F12.8°C 71% 8.0 mph SSE12.9 kmh SSE 15.0 mph24.1 kmh 29.71 in1006.1 mb 0.00 in0.0 mm 0.00 in0.0 mm 0.03 in0.8 mm
02:15 PM 64.9°F18.3°C 55.3°F12.9°C 71% 8.0 mph SE12.9 kmh SE 17.0 mph27.4 kmh 29.71 in1006.1 mb 0.00 in0.0 mm 0.00 in0.0 mm 0.03 in0.8 mm
02:00 PM 64.9°F18.3°C 55.3°F12.9°C 71% 9.0 mph SE14.5 kmh SE 19.0 mph30.6 kmh 29.71 in1006.1 mb 0.00 in0.0 mm 0.00 in0.0 mm 0.03 in0.8 mm
01:45 PM 64.4°F18.0°C 55.2°F12.9°C 72% 8.0 mph SSE12.9 kmh SSE 15.0 mph24.1 kmh 29.72 in1006.4 mb 0.00 in0.0 mm 0.00 in0.0 mm 0.03 in0.8 mm
01:30 PM 64.2°F17.9°C 55.0°F12.8°C 72% 8.0 mph SSE12.9 kmh SSE 15.0 mph24.1 kmh 29.72 in1006.4 mb 0.00 in0.0 mm 0.00 in0.0 mm 0.03 in0.8 mm
01:15 PM 64.2°F17.9°C 55.8°F13.2°C 74% 7.0 mph SSE11.3 kmh SSE 13.0 mph20.9 kmh 29.73 in1006.8 mb 0.00 in0.0 mm 0.00 in0.0 mm 0.03 in0.8 mm
01:00 PM 63.9°F17.7°C 55.4°F13.0°C 74% 7.0 mph SSE11.3 kmh SSE 14.0 mph22.5 kmh 29.74 in1007.1 mb 0.00 in0.0 mm 0.00 in0.0 mm 0.03 in0.8 mm
12:45 PM 63.9°F17.7°C 55.4°F13.0°C 74% 7.0 mph S11.3 kmh S 12.0 mph19.3 kmh 29.74 in1007.1 mb 0.00 in0.0 mm 0.00 in0.0 mm 0.03 in0.8 mm
12:30 PM 63.9°F17.7°C 55.4°F13.0°C 74% 7.0 mph S11.3 kmh S 14.0 mph22.5 kmh 29.74 in1007.1 mb 0.00 in0.0 mm 0.00 in0.0 mm 0.03 in0.8 mm
12:15 PM 64.2°F17.9°C 54.6°F12.6°C 71% 9.0 mph S14.5 kmh S 17.0 mph27.4 kmh 29.75 in1007.5 mb 0.00 in0.0 mm 0.00 in0.0 mm 0.03 in0.8 mm
12:00 PM 64.9°F18.3°C 55.3°F12.9°C 71% 9.0 mph S14.5 kmh S 17.0 mph27.4 kmh 29.74 in1007.1 mb 0.00 in0.0 mm 0.00 in0.0 mm 0.03 in0.8 mm
11:45 AM 64.9°F18.3°C 54.9°F12.7°C 70% 9.0 mph S14.5 kmh S 16.0 mph25.7 kmh 29.75 in1007.5 mb 0.00 in0.0 mm 0.00 in0.0 mm 0.03 in0.8 mm
11:30 AM 63.7°F17.6°C 54.1°F12.3°C 71% 7.0 mph S11.3 kmh S 15.0 mph24.1 kmh 29.75 in1007.5 mb 0.00 in0.0 mm 0.00 in0.0 mm 0.03 in0.8 mm
11:15 AM 63.3°F17.4°C 53.8°F12.1°C 71% 9.0 mph S14.5 kmh S 16.0 mph25.7 kmh 29.75 in1007.5 mb 0.00 in0.0 mm 0.00 in0.0 mm 0.03 in0.8 mm
11:00 AM 63.3°F17.4°C 53.8°F12.1°C 71% 9.0 mph S14.5 kmh S 14.0 mph22.5 kmh 29.75 in1007.5 mb 0.00 in0.0 mm 0.00 in0.0 mm 0.03 in0.8 mm
10:45 AM 63.1°F17.3°C 55.1°F12.8°C 75% 9.0 mph S14.5 kmh S 15.0 mph24.1 kmh 29.75 in1007.5 mb 0.00 in0.0 mm 0.00 in0.0 mm 0.03 in0.8 mm
10:30 AM 62.1°F16.7°C 54.8°F12.7°C 77% 8.0 mph S12.9 kmh S 14.0 mph22.5 kmh 29.75 in1007.5 mb 0.00 in0.0 mm 0.00 in0.0 mm 0.03 in0.8 mm
10:15 AM 61.2°F16.2°C 54.9°F12.7°C 80% 8.0 mph S12.9 kmh S 16.0 mph25.7 kmh 29.75 in1007.5 mb 0.00 in0.0 mm 0.00 in0.0 mm 0.03 in0.8 mm
10:00 AM 60.8°F16.0°C 55.3°F12.9°C 82% 8.0 mph S12.9 kmh S 15.0 mph24.1 kmh 29.75 in1007.5 mb 0.00 in0.0 mm 0.00 in0.0 mm 0.03 in0.8 mm
09:45 AM 60.3°F15.7°C 55.1°F12.8°C 83% 7.0 mph S11.3 kmh S 14.0 mph22.5 kmh 29.75 in1007.5 mb 0.00 in0.0 mm 0.00 in0.0 mm 0.03 in0.8 mm
09:30 AM 59.5°F15.3°C 55.3°F12.9°C 86% 7.0 mph S11.3 kmh S 15.0 mph24.1 kmh 29.75 in1007.5 mb 0.00 in0.0 mm 0.00 in0.0 mm 0.03 in0.8 mm
09:15 AM 59.0°F15.0°C 55.1°F12.8°C 87% 7.0 mph SSW11.3 kmh SSW 16.0 mph25.7 kmh 29.75 in1007.5 mb 0.00 in0.0 mm 0.00 in0.0 mm 0.03 in0.8 mm
09:00 AM 58.6°F14.8°C 55.1°F12.8°C 88% 6.0 mph S9.7 kmh S 14.0 mph22.5 kmh 29.76 in1007.8 mb 0.00 in0.0 mm 0.00 in0.0 mm 0.03 in0.8 mm
08:45 AM 57.9°F14.4°C 55.0°F12.8°C 90% 6.0 mph S9.7 kmh S 9.0 mph14.5 kmh 29.75 in1007.5 mb 0.00 in0.0 mm 0.00 in0.0 mm 0.03 in0.8 mm
08:30 AM 57.4°F14.1°C 54.8°F12.7°C 91% 6.0 mph S9.7 kmh S 12.0 mph19.3 kmh 29.75 in1007.5 mb 0.00 in0.0 mm 0.00 in0.0 mm 0.03 in0.8 mm
08:15 AM 57.0°F13.9°C 54.4°F12.4°C 91% 7.0 mph S11.3 kmh S 13.0 mph20.9 kmh 29.75 in1007.5 mb 0.00 in0.0 mm 0.00 in0.0 mm 0.03 in0.8 mm
08:00 AM 56.5°F13.6°C 54.2°F12.3°C 92% 6.0 mph S9.7 kmh S 12.0 mph19.3 kmh 29.75 in1007.5 mb 0.00 in0.0 mm 0.00 in0.0 mm 0.03 in0.8 mm
07:45 AM 55.9°F13.3°C 53.9°F12.2°C 93% 6.0 mph S9.7 kmh S 11.0 mph17.7 kmh 29.74 in1007.1 mb 0.00 in0.0 mm 0.00 in0.0 mm 0.03 in0.8 mm
07:30 AM 55.6°F13.1°C 53.6°F12.0°C 93% 6.0 mph S9.7 kmh S 11.0 mph17.7 kmh 29.74 in1007.1 mb 0.00 in0.0 mm 0.00 in0.0 mm 0.03 in0.8 mm
07:15 AM 55.4°F13.0°C 53.4°F11.9°C 93% 6.0 mph S9.7 kmh S 10.0 mph16.1 kmh 29.74 in1007.1 mb 0.00 in0.0 mm 0.00 in0.0 mm 0.03 in0.8 mm
07:00 AM 55.2°F12.9°C 53.2°F11.8°C 93% 5.0 mph S8.0 kmh S 9.0 mph14.5 kmh 29.73 in1006.8 mb 0.00 in0.0 mm 0.00 in0.0 mm 0.03 in0.8 mm
06:45 AM 55.2°F12.9°C 53.5°F11.9°C 94% 6.0 mph S9.7 kmh S 10.0 mph16.1 kmh 29.73 in1006.8 mb 0.00 in0.0 mm 0.00 in0.0 mm 0.03 in0.8 mm
06:30 AM 55.2°F12.9°C 53.2°F11.8°C 93% 3.0 mph S4.8 kmh S 7.0 mph11.3 kmh 29.73 in1006.8 mb 0.00 in0.0 mm 0.00 in0.0 mm 0.03 in0.8 mm
06:15 AM 55.2°F12.9°C 53.2°F11.8°C 93% 4.0 mph S6.4 kmh S 9.0 mph14.5 kmh 29.72 in1006.4 mb 0.01 in0.3 mm 0.00 in0.0 mm 0.03 in0.8 mm
06:00 AM 55.8°F13.2°C 53.8°F12.1°C 93% 4.0 mph S6.4 kmh S 8.0 mph12.9 kmh 29.72 in1006.4 mb 0.01 in0.3 mm 0.00 in0.0 mm 0.03 in0.8 mm
05:45 AM 56.1°F13.4°C 54.4°F12.4°C 94% 4.0 mph S6.4 kmh S 8.0 mph12.9 kmh 29.71 in1006.1 mb 0.01 in0.3 mm 0.00 in0.0 mm 0.03 in0.8 mm
05:30 AM 56.5°F13.6°C 54.8°F12.7°C 94% 4.0 mph S6.4 kmh S 8.0 mph12.9 kmh 29.71 in1006.1 mb 0.01 in0.3 mm 0.04 in1.0 mm 0.03 in0.8 mm
05:15 AM 56.7°F13.7°C 55.0°F12.8°C 94% 5.0 mph S8.0 kmh S 8.0 mph12.9 kmh 29.70 in1005.8 mb 0.00 in0.0 mm 0.00 in0.0 mm 0.02 in0.5 mm
05:00 AM 56.8°F13.8°C 55.1°F12.8°C 94% 4.0 mph S6.4 kmh S 8.0 mph12.9 kmh 29.70 in1005.8 mb 0.00 in0.0 mm 0.00 in0.0 mm 0.02 in0.5 mm
04:45 AM 57.0°F13.9°C 55.3°F12.9°C 94% 5.0 mph S8.0 kmh S 9.0 mph14.5 kmh 29.70 in1005.8 mb 0.00 in0.0 mm 0.00 in0.0 mm 0.02 in0.5 mm
04:30 AM 57.0°F13.9°C 55.3°F12.9°C 94% 4.0 mph SSW6.4 kmh SSW 8.0 mph12.9 kmh 29.69 in1005.4 mb 0.00 in0.0 mm 0.00 in0.0 mm 0.02 in0.5 mm
04:15 AM 57.0°F13.9°C 55.3°F12.9°C 94% 5.0 mph S8.0 kmh S 9.0 mph14.5 kmh 29.69 in1005.4 mb 0.00 in0.0 mm 0.00 in0.0 mm 0.02 in0.5 mm
04:00 AM 57.0°F13.9°C 55.0°F12.8°C 93% 5.0 mph S8.0 kmh S 10.0 mph16.1 kmh 29.68 in1005.1 mb 0.00 in0.0 mm 0.00 in0.0 mm 0.02 in0.5 mm
03:45 AM 57.0°F13.9°C 55.0°F12.8°C 93% 5.0 mph S8.0 kmh S 11.0 mph17.7 kmh 29.68 in1005.1 mb 0.00 in0.0 mm 0.00 in0.0 mm 0.02 in0.5 mm
03:30 AM 57.0°F13.9°C 55.0°F12.8°C 93% 5.0 mph S8.0 kmh S 9.0 mph14.5 kmh 29.67 in1004.7 mb 0.00 in0.0 mm 0.00 in0.0 mm 0.02 in0.5 mm
03:15 AM 57.0°F13.9°C 55.0°F12.8°C 93% 4.0 mph S6.4 kmh S 8.0 mph12.9 kmh 29.67 in1004.7 mb 0.00 in0.0 mm 0.00 in0.0 mm 0.02 in0.5 mm
03:00 AM 57.4°F14.1°C 55.4°F13.0°C 93% 4.0 mph S6.4 kmh S 8.0 mph12.9 kmh 29.66 in1004.4 mb 0.00 in0.0 mm 0.00 in0.0 mm 0.02 in0.5 mm
02:45 AM 57.6°F14.2°C 55.6°F13.1°C 93% 4.0 mph S6.4 kmh S 8.0 mph12.9 kmh 29.66 in1004.4 mb 0.00 in0.0 mm 0.00 in0.0 mm 0.02 in0.5 mm
02:30 AM 57.6°F14.2°C 55.6°F13.1°C 93% 5.0 mph S8.0 kmh S 10.0 mph16.1 kmh 29.66 in1004.4 mb 0.00 in0.0 mm 0.00 in0.0 mm 0.02 in0.5 mm
02:15 AM 57.9°F14.4°C 55.9°F13.3°C 93% 5.0 mph S8.0 kmh S 9.0 mph14.5 kmh 29.66 in1004.4 mb 0.00 in0.0 mm 0.00 in0.0 mm 0.02 in0.5 mm
02:00 AM 58.3°F14.6°C 56.3°F13.5°C 93% 5.0 mph S8.0 kmh S 10.0 mph16.1 kmh 29.66 in1004.4 mb 0.00 in0.0 mm 0.00 in0.0 mm 0.02 in0.5 mm
01:45 AM 58.5°F14.7°C 56.4°F13.6°C 93% 4.0 mph S6.4 kmh S 8.0 mph12.9 kmh 29.66 in1004.4 mb 0.00 in0.0 mm 0.00 in0.0 mm 0.02 in0.5 mm
01:30 AM 58.6°F14.8°C 56.6°F13.7°C 93% 4.0 mph S6.4 kmh S 5.0 mph8.0 kmh 29.66 in1004.4 mb 0.01 in0.3 mm 0.00 in0.0 mm 0.02 in0.5 mm
01:15 AM 58.8°F14.9°C 56.8°F13.8°C 93% 3.0 mph S4.8 kmh S 5.0 mph8.0 kmh 29.66 in1004.4 mb 0.02 in0.5 mm 0.00 in0.0 mm 0.02 in0.5 mm
01:00 AM 59.0°F15.0°C 57.0°F13.9°C 93% 3.0 mph S4.8 kmh S 6.0 mph9.7 kmh 29.66 in1004.4 mb 0.02 in0.5 mm 0.00 in0.0 mm 0.02 in0.5 mm
12:45 AM 59.4°F15.2°C 57.0°F13.9°C 92% 5.0 mph S8.0 kmh S 9.0 mph14.5 kmh 29.65 in1004.1 mb 0.02 in0.5 mm 0.04 in1.0 mm 0.02 in0.5 mm
12:30 AM 59.4°F15.2°C 57.0°F13.9°C 92% 5.0 mph S8.0 kmh S 8.0 mph12.9 kmh 29.65 in1004.1 mb 0.01 in0.3 mm 0.04 in1.0 mm 0.01 in0.3 mm
12:15 AM 59.5°F15.3°C 57.2°F14.0°C 92% 5.0 mph SSE8.0 kmh SSE 9.0 mph14.5 kmh 29.65 in1004.1 mb 0.00 in0.0 mm 0.00 in0.0 mm 0.00 in0.0 mm
12:00 AM 59.7°F15.4°C 57.4°F14.1°C 92% 4.0 mph SSE6.4 kmh SSE 8.0 mph12.9 kmh 29.64 in1003.7 mb 0.00 in0.0 mm 0.00 in0.0 mm 0.00 in0.0 mm